Time;durP1;ratioP1;P1;durP2;ratioP2;P2;SDS_P1;SDS_P2;PMS_P1;PMS_P2;Temp;Humidity;BMP_temperature;BMP_pressure;BME280_temperature;BME280_humidity;BME280_pressure;Samples;Min_cycle;Max_cycle;Signal;HPM_P1;HPM_P2
2022/06/07 00:01:13;;;;;;;6.77;3.37;;;;;11.20;100917.00;;;;10391820;28;20719;-81
2022/06/07 00:06:15;;;;;;;5.17;3.27;;;;;11.20;100909.00;;;;10435136;28;20228;-81
2022/06/07 00:11:18;;;;;;;5.37;3.00;;;;;11.20;100912.00;;;;10418826;28;20641;-80
2022/06/07 00:16:20;;;;;;;4.07;2.87;;;;;11.10;100898.00;;;;10424170;28;20558;-81
2022/06/07 00:21:22;;;;;;;4.10;2.80;;;;;11.00;100909.00;;;;10457025;28;20630;-81
2022/06/07 00:26:24;;;;;;;7.00;3.17;;;;;11.00;100908.00;;;;10415855;28;20206;-81
2022/06/07 00:31:27;;;;;;;9.07;2.63;;;;;10.90;100899.00;;;;10407843;28;20214;-80
2022/06/07 00:36:29;;;;;;;4.07;2.77;;;;;10.90;100887.00;;;;10424917;28;20202;-80
2022/06/07 00:41:31;;;;;;;6.10;3.00;;;;;10.80;100889.00;;;;10442734;28;20730;-80
2022/06/07 00:46:33;;;;;;;5.47;3.07;;;;;10.70;100884.00;;;;10433481;28;20189;-81
2022/06/07 00:51:35;;;;;;;5.20;2.57;;;;;10.70;100877.00;;;;10433028;28;20224;-81
2022/06/07 00:56:37;;;;;;;4.93;3.00;;;;;10.70;100876.00;;;;10447662;28;20268;-81
2022/06/07 01:01:40;;;;;;;5.33;3.03;;;;;10.70;100875.00;;;;10431985;28;20213;-80
2022/06/07 01:12:04;;;;;;;5.30;3.37;;;;;10.70;100865.00;;;;10461000;28;20194;-80
2022/06/07 01:17:06;;;;;;;4.97;3.20;;;;;10.80;100859.00;;;;10435832;28;20268;-81
2022/06/07 01:22:11;;;;;;;11.10;3.27;;;;;10.90;100863.00;;;;10439719;28;20221;-81
2022/06/07 01:27:14;;;;;;;6.53;3.80;;;;;11.10;100848.00;;;;10470718;28;20211;-81
2022/06/07 01:32:16;;;;;;;4.27;2.93;;;;;11.20;100857.00;;;;10455809;28;20209;-80
2022/06/07 01:37:19;;;;;;;7.13;3.50;;;;;11.30;100853.00;;;;10455391;28;20200;-80
2022/06/07 01:42:22;;;;;;;5.43;2.97;;;;;11.30;100857.00;;;;10442574;28;20215;-81
2022/06/07 01:47:30;;;;;;;5.60;3.27;;;;;11.30;100848.00;;;;10455368;28;20590;-80
2022/06/07 01:52:36;;;;;;;5.83;3.07;;;;;11.40;100843.00;;;;10454171;28;20182;-81
2022/06/07 01:57:51;;;;;;;6.80;3.23;;;;;11.40;100838.00;;;;10429525;28;20226;-81
2022/06/07 02:02:53;;;;;;;9.00;3.33;;;;;11.40;100839.00;;;;10413383;28;20211;-80
2022/06/07 02:07:57;;;;;;;6.23;2.87;;;;;11.30;100823.00;;;;10412267;28;20221;-80
2022/06/07 02:13:04;;;;;;;6.00;2.93;;;;;11.30;100819.00;;;;10445244;28;20194;-80
2022/06/07 02:18:06;;;;;;;6.50;2.73;;;;;11.30;100813.00;;;;10417140;28;20198;-80
2022/06/07 02:23:19;;;;;;;9.53;2.93;;;;;11.20;100813.00;;;;10448414;28;20205;-80
2022/06/07 02:28:24;;;;;;;5.57;3.53;;;;;11.30;100810.00;;;;10423067;28;20267;-80
2022/06/07 02:33:27;;;;;;;5.50;3.00;;;;;11.30;100810.00;;;;10451959;28;20236;-80
2022/06/07 02:38:29;;;;;;;5.50;3.60;;;;;11.30;100813.00;;;;10462762;28;20272;-80
2022/06/07 02:43:31;;;;;;;9.43;4.13;;;;;11.10;100808.00;;;;10404733;28;20700;-81
2022/06/07 02:48:33;;;;;;;7.53;3.70;;;;;11.00;100802.00;;;;10404539;28;20194;-81
2022/06/07 02:53:36;;;;;;;6.10;3.23;;;;;10.90;100811.00;;;;10449854;28;20189;-80
2022/06/07 02:58:38;;;;;;;3.97;2.80;;;;;10.90;100811.00;;;;10420176;28;20194;-80
2022/06/07 03:03:41;;;;;;;5.43;3.50;;;;;10.80;100811.00;;;;10393279;28;20218;-80
2022/06/07 03:08:46;;;;;;;6.57;3.47;;;;;10.80;100817.00;;;;10456648;28;20281;-81
2022/06/07 03:13:48;;;;;;;4.30;3.23;;;;;10.80;100811.00;;;;10450437;28;20212;-81
2022/06/07 03:18:57;;;;;;;8.20;3.30;;;;;10.80;100825.00;;;;10451032;28;20194;-80
2022/06/07 03:23:59;;;;;;;6.63;3.17;;;;;10.80;100818.00;;;;10451297;28;20239;-80
2022/06/07 03:29:03;;;;;;;6.17;4.20;;;;;11.00;100823.00;;;;10451479;28;20201;-80
2022/06/07 03:34:07;;;;;;;7.90;3.67;;;;;11.10;100826.00;;;;10422704;28;20228;-80
2022/06/07 03:39:13;;;;;;;5.07;3.57;;;;;11.30;100832.00;;;;10425868;28;20214;-80
2022/06/07 03:44:28;;;;;;;5.43;3.13;;;;;11.50;100835.00;;;;10425813;28;20194;-80
2022/06/07 03:49:39;;;;;;;6.13;2.70;;;;;11.90;100827.00;;;;10421365;28;20209;-80
2022/06/07 03:54:42;;;;;;;7.67;3.50;;;;;12.30;100832.00;;;;10434120;28;20193;-81
2022/06/07 03:59:45;;;;;;;3.70;2.70;;;;;12.60;100834.00;;;;10465475;28;20209;-80
2022/06/07 04:04:47;;;;;;;10.57;3.93;;;;;12.80;100844.00;;;;10421711;28;20661;-80
2022/06/07 04:09:50;;;;;;;3.93;2.90;;;;;13.10;100851.00;;;;10392070;28;20190;-80
2022/06/07 04:15:00;;;;;;;6.60;2.70;;;;;13.20;100843.00;;;;10408918;28;20347;-81
2022/06/07 04:20:03;;;;;;;6.90;3.07;;;;;13.40;100832.00;;;;10449874;28;20205;-80
2022/06/07 04:25:08;;;;;;;7.07;2.70;;;;;13.50;100832.00;;;;10465152;28;20726;-81
2022/06/07 04:30:14;;;;;;;5.20;2.53;;;;;13.60;100836.00;;;;10466796;28;20223;-81
2022/06/07 04:35:19;;;;;;;2.93;2.30;;;;;13.70;100845.00;;;;10425952;28;20281;-80
2022/06/07 04:40:26;;;;;;;4.60;2.20;;;;;13.80;100836.00;;;;10423935;28;20206;-81
2022/06/07 04:45:31;;;;;;;9.80;3.00;;;;;14.00;100846.00;;;;10409168;28;20588;-81
2022/06/07 04:50:45;;;;;;;7.30;2.60;;;;;14.30;100846.00;;;;10441167;28;20266;-81
2022/06/07 04:55:51;;;;;;;5.47;2.90;;;;;14.70;100850.00;;;;10473436;28;20193;-81
2022/06/07 05:00:53;;;;;;;4.90;2.57;;;;;15.00;100858.00;;;;10439682;28;20593;-81
2022/06/07 05:05:56;;;;;;;5.83;2.20;;;;;15.40;100860.00;;;;10421815;28;20217;-81
2022/06/07 05:10:59;;;;;;;4.23;2.03;;;;;15.60;100864.00;;;;10455093;28;20189;-81
2022/06/07 05:16:03;;;;;;;4.73;2.33;;;;;15.70;100870.00;;;;10468718;28;20205;-81
2022/06/07 05:21:08;;;;;;;4.93;2.20;;;;;15.90;100869.00;;;;10459716;28;20204;-81
2022/06/07 05:26:35;;;;;;;5.07;2.23;;;;;16.70;100869.00;;;;10451333;28;20209;-82
2022/06/07 05:31:38;;;;;;;4.37;1.83;;;;;17.30;100861.00;;;;10444710;28;20201;-81
2022/06/07 05:36:41;;;;;;;3.93;1.60;;;;;17.50;100858.00;;;;10428906;28;20194;-82
2022/06/07 05:41:43;;;;;;;5.30;2.00;;;;;17.40;100868.00;;;;10454457;28;20214;-82
2022/06/07 05:46:52;;;;;;;10.10;2.30;;;;;17.40;100865.00;;;;10438478;28;20194;-82
2022/06/07 05:52:14;;;;;;;5.10;1.30;;;;;17.40;100871.00;;;;10442274;28;20197;-81
2022/06/07 05:57:19;;;;;;;7.22;1.50;;;;;17.40;100871.00;;;;10453577;28;20190;-82
2022/06/07 06:02:22;;;;;;;5.53;1.33;;;;;17.80;100872.00;;;;10452067;28;20217;-81
2022/06/07 06:07:30;;;;;;;6.22;1.50;;;;;18.00;100871.00;;;;10455193;28;20216;-82
2022/06/07 06:12:33;;;;;;;5.18;1.30;;;;;17.70;100865.00;;;;10395198;28;20198;-82
2022/06/07 06:17:47;;;;;;;3.05;1.50;;;;;17.60;100878.00;;;;10425121;28;20660;-81
2022/06/07 06:23:02;;;;;;;4.13;1.20;;;;;17.60;100866.00;;;;10438371;28;20280;-81
2022/06/07 06:28:04;;;;;;;2.33;0.98;;;;;18.00;100872.00;;;;10452669;28;20205;-82
2022/06/07 06:33:07;;;;;;;3.92;1.45;;;;;18.60;100865.00;;;;10410915;28;20190;-82
2022/06/07 06:38:09;;;;;;;3.65;1.30;;;;;18.70;100863.00;;;;10428415;28;20281;-82
2022/06/07 06:43:13;;;;;;;3.63;1.05;;;;;18.70;100872.00;;;;10429860;28;20214;-82
2022/06/07 06:48:22;;;;;;;5.00;1.40;;;;;18.90;100877.00;;;;10420246;28;20190;-82
2022/06/07 06:53:27;;;;;;;2.58;1.63;;;;;19.10;100870.00;;;;10452405;28;20182;-82
2022/06/07 06:58:35;;;;;;;2.67;1.40;;;;;19.00;100874.00;;;;10454135;28;20552;-82
2022/06/07 07:03:39;;;;;;;4.18;2.13;;;;;19.00;100885.00;;;;10438054;28;20215;-82
2022/06/07 07:08:44;;;;;;;4.47;1.67;;;;;19.10;100879.00;;;;10416564;28;20835;-81
2022/06/07 07:13:48;;;;;;;7.35;2.17;;;;;19.40;100881.00;;;;10420118;28;20268;-82
2022/06/07 07:18:50;;;;;;;2.38;1.40;;;;;19.60;100882.00;;;;10464896;28;20186;-82
2022/06/07 07:23:55;;;;;;;3.00;1.30;;;;;20.00;100885.00;;;;10429912;28;20309;-82
2022/06/07 07:28:58;;;;;;;2.97;1.20;;;;;20.50;100885.00;;;;10451254;28;20270;-82
2022/06/07 07:34:07;;;;;;;2.78;1.10;;;;;21.30;100880.00;;;;10449766;28;20239;-82
2022/06/07 07:39:10;;;;;;;2.92;1.30;;;;;21.80;100865.00;;;;10427930;28;20193;-82
2022/06/07 07:44:14;;;;;;;3.38;1.15;;;;;21.50;100875.00;;;;10452394;28;20209;-81
2022/06/07 07:49:21;;;;;;;3.28;1.10;;;;;21.20;100876.00;;;;10448466;28;20198;-82
2022/06/07 07:54:24;;;;;;;5.18;1.10;;;;;22.00;100878.00;;;;10450782;28;20254;-82
2022/06/07 07:59:30;;;;;;;2.85;1.05;;;;;23.10;100864.00;;;;10449379;28;20619;-82
2022/06/07 08:04:37;;;;;;;1.98;1.10;;;;;22.70;100876.00;;;;10437680;28;20217;-82
2022/06/07 08:09:39;;;;;;;3.75;1.00;;;;;22.00;100885.00;;;;10430341;28;20223;-81
2022/06/07 08:14:41;;;;;;;2.13;1.30;;;;;21.40;100877.00;;;;10439196;28;20216;-81
2022/06/07 08:19:43;;;;;;;5.18;1.35;;;;;21.40;100866.00;;;;10455297;28;20614;-81
2022/06/07 08:24:44;;;;;;;4.72;1.55;;;;;21.50;100872.00;;;;10437801;28;20182;-81
2022/06/07 08:29:47;;;;;;;3.83;2.05;;;;;21.10;100867.00;;;;10430493;28;20259;-81
2022/06/07 08:40:15;;;;;;;8.15;1.52;;;;;21.40;100868.00;;;;10457448;28;20596;-81
2022/06/07 08:45:21;;;;;;;3.80;1.50;;;;;21.50;100855.00;;;;10443480;28;20729;-82
2022/06/07 08:50:42;;;;;;;3.33;2.03;;;;;21.80;100865.00;;;;10430914;28;20201;-81
2022/06/07 08:55:57;;;;;;;2.05;0.85;;;;;21.80;100865.00;;;;10432528;28;20259;-82
2022/06/07 09:01:10;;;;;;;4.63;1.50;;;;;21.80;100859.00;;;;10461537;28;20751;-81
2022/06/07 09:06:20;;;;;;;4.30;1.75;;;;;21.40;100859.00;;;;10460026;28;20233;-81
2022/06/07 09:16:57;;;;;;;3.63;1.73;;;;;21.50;100858.00;;;;10450811;28;20210;-81
2022/06/07 09:22:05;;;;;;;3.53;1.88;;;;;21.50;100864.00;;;;10446103;28;20210;-81
2022/06/07 09:27:16;;;;;;;6.43;2.03;;;;;21.50;100863.00;;;;10437950;28;20690;-82
2022/06/07 09:32:20;;;;;;;4.22;1.75;;;;;21.60;100859.00;;;;10403882;28;20254;-81
2022/06/07 09:37:32;;;;;;;3.28;1.77;;;;;21.60;100867.00;;;;10443030;28;20189;-82
2022/06/07 09:42:34;;;;;;;2.60;1.70;;;;;21.10;100872.00;;;;10452309;28;20202;-82
2022/06/07 09:47:36;;;;;;;4.55;2.60;;;;;20.30;100875.00;;;;10442597;28;20193;-81
2022/06/07 09:52:41;;;;;;;6.93;2.80;;;;;19.90;100883.00;;;;10482656;28;20182;-81
2022/06/07 09:58:08;;;;;;;7.55;4.10;;;;;20.20;100884.00;;;;10466583;28;20220;-81
2022/06/07 10:03:24;;;;;;;8.50;4.40;;;;;19.50;100877.00;;;;10430763;28;20205;-81
2022/06/07 10:08:45;;;;;;;7.55;4.43;;;;;19.30;100875.00;;;;10467312;28;20189;-82
2022/06/07 10:14:02;;;;;;;9.20;5.65;;;;;19.40;100874.00;;;;10446958;28;21150;-81
2022/06/07 10:19:41;;;;;;;9.55;6.00;;;;;19.00;100877.00;;;;10462267;28;20648;-81
2022/06/07 10:24:58;;;;;;;11.23;6.38;;;;;19.10;100867.00;;;;10447269;28;20186;-81
2022/06/07 10:30:44;;;;;;;13.73;7.97;;;;;19.20;100868.00;;;;10466601;28;20197;-81
2022/06/07 10:35:59;;;;;;;7.93;5.72;;;;;19.30;100863.00;;;;10245107;28;20200;-81
2022/06/07 10:41:25;;;;;;;19.73;13.63;;;;;19.20;100870.00;;;;10421847;28;20209;-81
2022/06/07 10:46:29;;;;;;;9.27;6.25;;;;;18.90;100860.00;;;;10449031;28;20197;-81
2022/06/07 10:57:05;;;;;;;6.45;5.07;;;;;18.90;100859.00;;;;10439562;28;20201;-81
2022/06/07 11:02:49;;;;;;;7.95;4.78;;;;;19.00;100865.00;;;;10457311;28;20202;-80
2022/06/07 11:13:22;;;;;;;6.97;5.18;;;;;18.90;100854.00;;;;10446887;28;20833;-79
2022/06/07 11:18:26;;;;;;;7.53;5.75;;;;;19.00;100855.00;;;;10465857;28;20185;-80
2022/06/07 11:23:32;;;;;;;10.88;6.25;;;;;19.00;100848.00;;;;10419113;28;20600;-81
2022/06/07 11:28:48;;;;;;;11.10;6.10;;;;;19.10;100844.00;;;;10444701;28;20291;-80
2022/06/07 11:33:53;;;;;;;9.73;6.43;;;;;19.10;100843.00;;;;10460694;28;20185;-80
2022/06/07 11:38:57;;;;;;;8.38;6.30;;;;;19.10;100846.00;;;;10466719;28;20186;-80
2022/06/07 11:44:00;;;;;;;18.27;10.50;;;;;19.70;100835.00;;;;10479986;28;20205;-80
2022/06/07 11:49:20;;;;;;;6.00;5.45;;;;;20.80;100825.00;;;;10464900;28;20189;-81
2022/06/07 11:54:28;;;;;;;8.43;5.82;;;;;20.40;100831.00;;;;10431667;28;20185;-81
2022/06/07 11:59:34;;;;;;;9.10;6.50;;;;;19.90;100833.00;;;;10450550;28;20193;-79
2022/06/07 12:04:45;;;;;;;7.75;5.50;;;;;20.50;100831.00;;;;10445963;28;20275;-79
2022/06/07 12:10:02;;;;;;;5.95;5.35;;;;;20.20;100822.00;;;;10452636;28;20251;-81
2022/06/07 12:15:15;;;;;;;11.55;8.98;;;;;21.10;100813.00;;;;10452368;28;20596;-81
2022/06/07 12:20:31;;;;;;;7.72;6.13;;;;;20.60;100811.00;;;;10458231;28;20414;-81
2022/06/07 12:25:35;;;;;;;7.00;6.20;;;;;21.00;100816.00;;;;10443576;28;20197;-80
2022/06/07 12:30:38;;;;;;;6.75;6.05;;;;;20.50;100805.00;;;;10445823;28;20735;-80
2022/06/07 12:35:54;;;;;;;7.50;6.70;;;;;20.40;100801.00;;;;10449526;28;20182;-80
2022/06/07 12:41:03;;;;;;;8.63;7.13;;;;;20.40;100795.00;;;;10446561;28;20205;-80
2022/06/07 12:46:17;;;;;;;9.02;7.53;;;;;20.40;100797.00;;;;10441460;28;20190;-80
2022/06/07 12:51:30;;;;;;;9.57;7.85;;;;;20.50;100797.00;;;;10440503;28;20186;-80
2022/06/07 12:56:38;;;;;;;10.95;7.93;;;;;20.10;100789.00;;;;10466983;28;20607;-80
2022/06/07 13:01:41;;;;;;;12.05;8.82;;;;;19.30;100789.00;;;;10463604;28;20205;-79
2022/06/07 13:06:58;;;;;;;80.15;53.30;;;;;20.80;100786.00;;;;10441616;28;20301;-79
2022/06/07 13:12:30;;;;;;;11.00;9.27;;;;;22.30;100778.00;;;;10433334;28;20192;-80
2022/06/07 13:17:40;;;;;;;11.27;9.40;;;;;22.90;100767.00;;;;10449178;28;20220;-79
2022/06/07 13:22:45;;;;;;;11.80;10.10;;;;;22.20;100767.00;;;;10452300;28;20209;-79
2022/06/07 13:28:09;;;;;;;10.80;9.63;;;;;21.10;100775.00;;;;10452346;28;20202;-79
2022/06/07 13:33:23;;;;;;;12.68;9.60;;;;;20.10;100766.00;;;;10432150;28;20195;-80
2022/06/07 13:38:37;;;;;;;12.02;9.85;;;;;19.40;100763.00;;;;10445762;28;20189;-80
2022/06/07 13:43:53;;;;;;;12.50;10.07;;;;;20.30;100756.00;;;;10452107;28;20207;-79
2022/06/07 13:54:49;;;;;;;12.48;9.43;;;;;24.10;100754.00;;;;10451815;28;20186;-79
2022/06/07 13:59:51;;;;;;;8.57;7.55;;;;;25.70;100745.00;;;;10466657;28;20193;-78
2022/06/07 14:04:53;;;;;;;6.70;6.10;;;;;24.40;100747.00;;;;10404494;28;20246;-79
2022/06/07 14:09:56;;;;;;;7.00;6.30;;;;;23.70;100742.00;;;;10467728;28;20220;-79
2022/06/07 14:14:58;;;;;;;5.30;4.60;;;;;23.60;100733.00;;;;10468472;28;20236;-79
2022/06/07 14:20:01;;;;;;;5.07;4.57;;;;;23.50;100737.00;;;;10435199;28;20247;-79
2022/06/07 14:25:03;;;;;;;6.10;4.93;;;;;23.10;100728.00;;;;10451721;28;20220;-79
2022/06/07 14:30:07;;;;;;;5.20;4.80;;;;;23.10;100734.00;;;;10449486;28;20596;-80
2022/06/07 14:35:23;;;;;;;4.15;3.53;;;;;23.90;100723.00;;;;10464457;28;20553;-80
2022/06/07 14:40:29;;;;;;;4.75;4.30;;;;;29.40;100713.00;;;;10432490;28;20197;-80
2022/06/07 14:45:52;;;;;;;3.95;3.65;;;;;32.40;100710.00;;;;10412486;28;20205;-78
2022/06/07 14:50:55;;;;;;;3.30;2.95;;;;;26.70;100731.00;;;;10453023;28;20251;-80
2022/06/07 14:55:56;;;;;;;3.75;2.72;;;;;25.80;100716.00;;;;10467231;28;20190;-80
2022/06/07 15:00:58;;;;;;;3.50;3.17;;;;;24.20;100709.00;;;;10451083;28;20213;-81
2022/06/07 15:06:00;;;;;;;3.55;2.47;;;;;22.70;100716.00;;;;10464767;28;20239;-81
2022/06/07 15:11:03;;;;;;;3.03;2.83;;;;;22.50;100719.00;;;;10432256;28;20201;-81
2022/06/07 15:16:13;;;;;;;5.60;4.05;;;;;22.00;100728.00;;;;10450614;28;20284;-79
2022/06/07 15:21:17;;;;;;;5.80;5.30;;;;;22.00;100731.00;;;;10423763;28;20214;-78
2022/06/07 15:26:22;;;;;;;5.35;4.80;;;;;21.40;100730.00;;;;10442240;28;20252;-80
2022/06/07 15:31:26;;;;;;;5.40;4.80;;;;;20.20;100738.00;;;;10475800;28;20194;-80
2022/06/07 15:36:29;;;;;;;7.93;5.03;;;;;19.30;100753.00;;;;10441656;28;20637;-82
2022/06/07 15:46:56;;;;;;;8.85;6.15;;;;;19.00;100757.00;;;;10430621;28;20231;-80
2022/06/07 15:51:59;;;;;;;7.93;7.13;;;;;20.00;100749.00;;;;10400767;28;20731;-79
2022/06/07 15:57:02;;;;;;;7.88;7.07;;;;;20.20;100746.00;;;;10411576;28;20202;-80
2022/06/07 16:02:06;;;;;;;8.40;7.57;;;;;20.20;100737.00;;;;10418543;28;20198;-82
2022/06/07 16:07:08;;;;;;;9.27;8.40;;;;;19.40;100743.00;;;;10436255;28;20218;-82
2022/06/07 16:12:10;;;;;;;8.63;7.82;;;;;19.80;100737.00;;;;10424015;28;20711;-83
2022/06/07 16:17:12;;;;;;;9.43;8.40;;;;;20.30;100730.00;;;;10443128;28;20197;-82
2022/06/07 16:22:14;;;;;;;11.18;9.90;;;;;21.10;100733.00;;;;10426628;28;20753;-83
2022/06/07 16:37:57;;;;;;;8.38;6.53;;;;;20.10;100729.00;;;;10415776;28;20186;-82
2022/06/07 16:44:00;;;;;;;9.30;6.38;;;;;19.80;100740.00;;;;10404315;28;20738;-81
2022/06/07 16:48:21;;;;;;;8.35;6.00;;;;;19.40;100736.00;;;;10445577;28;20190;-81
2022/06/07 16:53:24;;;;;;;5.97;5.38;;;;;19.20;100745.00;;;;10455521;28;20190;-81
2022/06/07 16:58:27;;;;;;;7.88;5.43;;;;;19.10;100740.00;;;;10431780;28;20221;-81
2022/06/07 17:03:29;;;;;;;6.10;5.55;;;;;19.10;100738.00;;;;10434515;28;20565;-82
2022/06/07 17:08:31;;;;;;;6.55;5.95;;;;;19.20;100725.00;;;;10455923;28;20197;-81
2022/06/07 17:13:33;;;;;;;7.65;5.32;;;;;19.10;100725.00;;;;10472547;28;20190;-81
2022/06/07 17:18:36;;;;;;;6.90;4.45;;;;;19.00;100719.00;;;;10473474;28;20201;-81
2022/06/07 17:23:41;;;;;;;3.60;3.30;;;;;19.40;100719.00;;;;10441750;28;20201;-80
2022/06/07 17:28:45;;;;;;;5.82;2.63;;;;;19.30;100736.00;;;;10472878;28;20571;-81
2022/06/07 17:33:48;;;;;;;2.65;2.10;;;;;19.20;100723.00;;;;10433200;28;20194;-81
2022/06/07 17:38:53;;;;;;;2.78;1.95;;;;;18.90;100717.00;;;;10400027;28;20206;-81
2022/06/07 17:43:56;;;;;;;2.25;2.05;;;;;18.50;100713.00;;;;10430371;28;20696;-81
2022/06/07 17:48:59;;;;;;;2.42;2.20;;;;;18.30;100702.00;;;;10435914;28;20205;-80
2022/06/07 17:54:01;;;;;;;4.82;3.03;;;;;18.40;100715.00;;;;10454170;28;20186;-81
2022/06/07 17:59:03;;;;;;;1.98;1.77;;;;;18.60;100720.00;;;;10453864;28;20182;-80
2022/06/07 18:04:05;;;;;;;2.30;2.03;;;;;18.90;100721.00;;;;10437597;28;20217;-81
2022/06/07 18:09:07;;;;;;;2.80;1.85;;;;;18.80;100728.00;;;;10413831;28;20190;-81
2022/06/07 18:14:09;;;;;;;3.17;2.33;;;;;18.50;100727.00;;;;10446326;28;20507;-81
2022/06/07 18:19:11;;;;;;;3.83;1.60;;;;;18.20;100724.00;;;;10441105;28;20198;-81
2022/06/07 18:24:14;;;;;;;3.45;1.90;;;;;18.10;100730.00;;;;10438789;28;20580;-80
2022/06/07 18:29:16;;;;;;;4.05;1.45;;;;;17.90;100727.00;;;;10454523;28;20212;-81
2022/06/07 18:34:18;;;;;;;3.10;1.30;;;;;18.10;100722.00;;;;10428486;28;20600;-80
2022/06/07 18:39:20;;;;;;;2.28;1.50;;;;;18.20;100724.00;;;;10446456;28;20257;-80
2022/06/07 18:44:22;;;;;;;3.80;1.67;;;;;18.20;100723.00;;;;10412660;28;20206;-81
2022/06/07 18:49:29;;;;;;;1.27;1.10;;;;;17.90;100717.00;;;;10433789;28;20232;-81
2022/06/07 18:54:32;;;;;;;1.92;1.20;;;;;17.80;100725.00;;;;10414070;28;20899;-81
2022/06/07 18:59:35;;;;;;;2.97;1.35;;;;;17.70;100719.00;;;;10470534;28;20216;-81
2022/06/07 19:04:37;;;;;;;1.70;1.50;;;;;17.50;100724.00;;;;10432456;28;20222;-81
2022/06/07 19:09:47;;;;;;;2.58;1.40;;;;;17.20;100715.00;;;;10452229;28;20305;-80
2022/06/07 19:14:49;;;;;;;2.28;1.50;;;;;16.90;100712.00;;;;10469914;28;20190;-80
2022/06/07 19:19:51;;;;;;;3.03;1.40;;;;;16.60;100707.00;;;;10424894;28;20201;-80
2022/06/07 19:24:53;;;;;;;1.80;1.60;;;;;16.30;100710.00;;;;10469087;28;20209;-80
2022/06/07 19:29:55;;;;;;;3.05;1.40;;;;;16.10;100708.00;;;;10435101;28;20197;-80
2022/06/07 19:34:57;;;;;;;2.22;1.45;;;;;16.00;100704.00;;;;10410792;28;20217;-80
2022/06/07 19:40:03;;;;;;;2.25;1.45;;;;;16.00;100706.00;;;;10427804;28;20231;-80
2022/06/07 19:45:07;;;;;;;3.22;1.27;;;;;15.80;100707.00;;;;10426784;28;20728;-80
2022/06/07 19:50:10;;;;;;;2.90;1.45;;;;;15.70;100704.00;;;;10449358;28;20205;-80
2022/06/07 19:55:18;;;;;;;1.70;1.30;;;;;15.60;100699.00;;;;10450589;28;20186;-80
2022/06/07 20:00:24;;;;;;;3.07;1.40;;;;;15.40;100703.00;;;;10410670;28;20198;-80
2022/06/07 20:05:26;;;;;;;4.50;1.60;;;;;15.40;100697.00;;;;10433908;28;20224;-80
2022/06/07 20:10:29;;;;;;;1.63;1.53;;;;;15.40;100700.00;;;;10450988;28;20569;-79
2022/06/07 20:15:33;;;;;;;4.60;1.73;;;;;15.40;100718.00;;;;10450155;28;20201;-80
2022/06/07 20:20:36;;;;;;;4.10;1.80;;;;;15.40;100706.00;;;;10449529;28;20243;-80
2022/06/07 20:25:40;;;;;;;2.30;2.10;;;;;15.30;100711.00;;;;10450595;28;20271;-80
2022/06/07 20:30:42;;;;;;;3.10;1.87;;;;;15.10;100711.00;;;;10452053;28;20231;-80
2022/06/07 20:35:44;;;;;;;3.70;1.90;;;;;15.00;100717.00;;;;10466867;28;20240;-79
2022/06/07 20:40:48;;;;;;;4.23;2.70;;;;;14.90;100722.00;;;;10450092;28;20710;-80
2022/06/07 20:45:52;;;;;;;3.77;2.63;;;;;14.90;100711.00;;;;10457749;28;20194;-80
2022/06/07 20:50:55;;;;;;;6.20;2.50;;;;;14.80;100710.00;;;;10440463;28;20198;-80
2022/06/07 20:56:01;;;;;;;3.67;2.50;;;;;14.80;100712.00;;;;10416684;28;20182;-80
2022/06/07 21:01:04;;;;;;;4.30;2.07;;;;;14.70;100703.00;;;;10455506;28;20660;-80
2022/06/07 21:06:06;;;;;;;3.47;2.03;;;;;14.60;100704.00;;;;10416217;28;20221;-80
2022/06/07 21:11:08;;;;;;;2.87;2.00;;;;;14.50;100698.00;;;;10408110;28;20194;-80
2022/06/07 21:16:10;;;;;;;3.90;2.70;;;;;14.40;100706.00;;;;10418687;28;20198;-80
2022/06/07 21:21:13;;;;;;;4.07;2.90;;;;;14.30;100701.00;;;;10463902;28;20202;-80
2022/06/07 21:26:15;;;;;;;3.73;2.40;;;;;14.20;100700.00;;;;10429169;28;20688;-80
2022/06/07 21:31:17;;;;;;;3.10;2.10;;;;;14.10;100697.00;;;;10428628;28;20285;-79
2022/06/07 21:36:19;;;;;;;4.60;2.40;;;;;14.00;100701.00;;;;10454271;28;20205;-80
2022/06/07 21:41:22;;;;;;;3.17;2.13;;;;;14.10;100697.00;;;;10472507;28;20197;-80
2022/06/07 21:46:24;;;;;;;4.80;2.03;;;;;14.10;100699.00;;;;10454225;28;20194;-80
2022/06/07 21:51:26;;;;;;;4.17;2.67;;;;;14.10;100689.00;;;;10470064;28;20201;-80
2022/06/07 21:56:29;;;;;;;5.93;3.30;;;;;14.10;100687.00;;;;10444074;28;20297;-80
2022/06/07 22:01:30;;;;;;;6.10;3.23;;;;;14.10;100671.00;;;;10439375;28;20556;-80
2022/06/07 22:06:32;;;;;;;6.40;2.97;;;;;14.10;100674.00;;;;10414731;28;20221;-80
2022/06/07 22:11:34;;;;;;;5.47;2.23;;;;;14.10;100663.00;;;;10455051;28;20228;-80
2022/06/07 22:16:37;;;;;;;4.83;2.17;;;;;14.00;100661.00;;;;10455363;28;20599;-80
2022/06/07 22:21:39;;;;;;;2.33;1.90;;;;;13.90;100655.00;;;;10471111;28;20201;-80
2022/06/07 22:26:41;;;;;;;2.33;1.60;;;;;13.80;100643.00;;;;10455996;28;20210;-81
2022/06/07 22:31:43;;;;;;;3.43;2.00;;;;;13.70;100645.00;;;;10436923;28;20216;-80
2022/06/07 22:36:45;;;;;;;2.77;2.03;;;;;13.60;100642.00;;;;10471905;28;20205;-80
2022/06/07 22:41:47;;;;;;;3.10;1.73;;;;;13.60;100636.00;;;;10444563;28;20198;-80
2022/06/07 22:46:49;;;;;;;2.40;2.00;;;;;13.60;100634.00;;;;10412412;28;20182;-80
2022/06/07 22:52:02;;;;;;;5.13;2.00;;;;;13.60;100630.00;;;;10486815;28;20209;-80
2022/06/07 22:57:06;;;;;;;2.83;2.03;;;;;13.70;100621.00;;;;10453648;28;20230;-80
2022/06/07 23:02:08;;;;;;;3.43;2.43;;;;;13.80;100623.00;;;;10451936;28;20267;-80
2022/06/07 23:07:18;;;;;;;4.37;2.30;;;;;13.80;100614.00;;;;10453371;28;20249;-79
2022/06/07 23:12:20;;;;;;;3.13;1.73;;;;;13.90;100608.00;;;;10436622;28;20227;-79
2022/06/07 23:17:22;;;;;;;3.47;1.67;;;;;14.00;100608.00;;;;10452751;28;20247;-80
2022/06/07 23:22:30;;;;;;;7.13;2.03;;;;;14.00;100611.00;;;;10410720;28;20221;-79
2022/06/07 23:27:32;;;;;;;5.67;1.90;;;;;14.10;100599.00;;;;10411020;28;20202;-80
2022/06/07 23:32:35;;;;;;;2.50;1.60;;;;;14.00;100595.00;;;;10424959;28;20193;-79
2022/06/07 23:37:37;;;;;;;3.13;1.90;;;;;13.90;100595.00;;;;10484949;28;20186;-80
2022/06/07 23:42:40;;;;;;;5.90;2.00;;;;;13.90;100587.00;;;;10451966;28;20220;-80
2022/06/07 23:48:01;;;;;;;4.00;1.83;;;;;13.90;100581.00;;;;10453263;28;20194;-79
2022/06/07 23:53:08;;;;;;;4.73;1.83;;;;;13.70;100574.00;;;;10435046;28;20197;-80
2022/06/07 23:58:14;;;;;;;3.40;2.10;;;;;13.60;100568.00;;;;10450360;28;20197;-80
